createdAt,value
2018-04-13T03:22:12.457Z,989.58
2018-04-13T03:23:12.228Z,989.60
2018-04-13T03:24:12.256Z,989.57
2018-04-13T03:25:12.180Z,989.57
2018-04-13T03:26:12.233Z,989.58
2018-04-13T03:27:12.154Z,989.62
2018-04-13T03:28:12.190Z,989.57
2018-04-13T03:29:12.125Z,989.59
2018-04-13T03:30:12.124Z,989.57
2018-04-13T03:31:12.122Z,989.57
2018-04-13T03:32:12.107Z,989.58
2018-04-13T03:33:12.108Z,989.62
2018-04-13T03:34:12.284Z,989.56
2018-04-13T03:35:12.098Z,989.61
2018-04-13T03:36:20.787Z,989.58
2018-04-13T03:38:05.601Z,989.62
2018-04-13T03:39:05.538Z,989.65
2018-04-13T03:40:05.544Z,989.69
2018-04-13T03:41:05.578Z,989.68
2018-04-13T03:42:05.525Z,989.71
2018-04-13T03:43:05.488Z,989.74
2018-04-13T03:44:05.486Z,989.76
2018-04-13T03:45:05.469Z,989.74
2018-04-13T03:46:05.457Z,989.76
2018-04-13T03:47:05.515Z,989.80
2018-04-13T03:48:05.447Z,989.78
2018-04-13T03:49:05.485Z,989.80
2018-04-13T03:50:05.466Z,989.81
2018-04-13T03:51:05.461Z,989.79
2018-04-13T03:52:05.511Z,989.78
2018-04-13T03:53:05.425Z,989.83
2018-04-13T03:54:05.432Z,989.79
2018-04-13T03:55:05.429Z,989.82
2018-04-13T03:56:05.461Z,989.85
2018-04-13T03:57:05.419Z,989.83
2018-04-13T03:58:05.447Z,989.85
2018-04-13T03:59:05.405Z,989.90
2018-04-13T04:00:14.227Z,989.91
2018-04-13T04:01:58.894Z,989.96
2018-04-13T04:02:58.804Z,989.99
2018-04-13T04:03:58.828Z,989.97
2018-04-13T04:04:58.831Z,990.01
2018-04-13T04:05:58.791Z,990.02
2018-04-13T04:06:58.807Z,989.99
2018-04-13T04:07:58.804Z,990.05
2018-04-13T04:08:58.755Z,990.03
2018-04-13T04:09:58.754Z,990.08
2018-04-13T04:10:58.796Z,990.04
2018-04-13T04:11:58.790Z,990.04
2018-04-13T04:12:58.739Z,990.07
2018-04-13T04:13:58.749Z,990.09
2018-04-13T04:14:58.798Z,990.14
2018-04-13T04:15:58.737Z,990.17
2018-04-13T04:16:58.724Z,990.16
2018-04-13T04:17:58.727Z,990.18
2018-04-13T04:18:58.793Z,990.21
2018-04-13T04:19:58.727Z,990.23
2018-04-13T04:20:58.733Z,990.24
2018-04-13T04:21:58.740Z,990.21
2018-04-13T04:22:58.707Z,990.23
2018-04-13T04:23:58.744Z,990.27
2018-04-13T04:24:58.697Z,990.28
2018-04-13T04:25:58.728Z,990.29
2018-04-13T04:26:58.690Z,990.29
2018-04-13T04:27:58.700Z,990.29
2018-04-13T04:28:58.685Z,990.28
2018-04-13T04:29:58.693Z,990.32
2018-04-13T04:30:58.709Z,990.37
2018-04-13T04:31:58.681Z,990.39
2018-04-13T04:32:58.671Z,990.39
2018-04-13T04:33:58.713Z,990.43
2018-04-13T04:34:58.664Z,990.43
2018-04-13T04:35:58.690Z,990.48
2018-04-13T04:36:58.658Z,990.46
2018-04-13T04:37:58.653Z,990.47
2018-04-13T04:38:58.651Z,990.50
2018-04-13T04:39:58.666Z,990.52
2018-04-13T04:40:58.662Z,990.52
2018-04-13T04:41:58.642Z,990.58
2018-04-13T04:42:58.637Z,990.59
2018-04-13T04:43:58.629Z,990.64
2018-04-13T04:44:58.652Z,990.61
2018-04-13T04:45:58.626Z,990.62
2018-04-13T04:46:58.622Z,990.66
2018-04-13T04:47:58.617Z,990.69
2018-04-13T04:49:09.079Z,990.69
2018-04-13T04:50:52.082Z,990.76
2018-04-13T04:51:52.084Z,990.77
2018-04-13T04:52:52.024Z,990.80
2018-04-13T04:53:52.045Z,990.81
2018-04-13T04:54:52.052Z,990.77
2018-04-13T04:55:52.002Z,990.86
2018-04-13T04:56:51.975Z,990.81
2018-04-13T04:57:51.986Z,990.79
2018-04-13T04:58:51.969Z,990.82
2018-04-13T04:59:51.990Z,990.82
2018-04-13T05:00:51.984Z,990.83
2018-04-13T05:01:52.049Z,990.86
2018-04-13T05:02:51.973Z,990.88
2018-04-13T05:03:52.107Z,990.87
2018-04-13T05:04:52.000Z,990.90
2018-04-13T05:05:52.028Z,990.93
2018-04-13T05:06:52.005Z,990.94
2018-04-13T05:07:51.984Z,990.98
2018-04-13T05:08:51.942Z,990.97
2018-04-13T05:09:52.001Z,991.02
2018-04-13T05:10:51.949Z,991.00
2018-04-13T05:11:51.985Z,991.00
2018-04-13T05:12:51.920Z,991.00
2018-04-13T05:13:51.930Z,991.03
2018-04-13T05:14:51.973Z,991.03
2018-04-13T05:15:51.996Z,991.03
2018-04-13T05:16:51.937Z,991.08
2018-04-13T05:17:51.967Z,991.08
2018-04-13T05:18:51.901Z,991.08
2018-04-13T05:19:51.907Z,991.03
2018-04-13T05:20:51.916Z,991.06
2018-04-13T05:21:51.914Z,991.07
2018-04-13T05:22:51.897Z,991.10
2018-04-13T05:23:51.905Z,991.11
2018-04-13T05:24:51.951Z,991.10
2018-04-13T05:25:51.916Z,991.11
2018-04-13T05:26:51.910Z,991.15
2018-04-13T05:27:51.912Z,991.14
2018-04-13T05:28:51.871Z,991.13
2018-04-13T05:29:51.963Z,991.15
2018-04-13T05:30:51.890Z,991.18
2018-04-13T05:31:51.898Z,991.20
2018-04-13T05:32:51.948Z,991.21
2018-04-13T05:33:51.860Z,991.22
2018-04-13T05:34:51.921Z,991.26
2018-04-13T05:35:51.877Z,991.28
2018-04-13T05:36:51.853Z,991.29
2018-04-13T05:37:51.870Z,991.34
2018-04-13T05:38:51.887Z,991.35
2018-04-13T05:39:51.844Z,991.39
2018-04-13T05:40:51.898Z,991.37
2018-04-13T05:41:51.860Z,991.37
2018-04-13T05:42:51.862Z,991.39
2018-04-13T05:43:51.847Z,991.39
2018-04-13T05:44:51.864Z,991.41
2018-04-13T05:45:51.875Z,991.45
2018-04-13T05:46:51.855Z,991.44
2018-04-13T05:47:52.719Z,991.42
2018-04-13T05:48:51.956Z,991.44
2018-04-13T05:49:51.817Z,991.40
2018-04-13T05:50:51.801Z,991.46
2018-04-13T05:51:52.704Z,991.46
2018-04-13T05:52:51.845Z,991.49
2018-04-13T05:53:51.805Z,991.44
2018-04-13T05:54:51.828Z,991.46
2018-04-13T05:56:01.321Z,991.48
2018-04-13T05:57:45.313Z,991.44
2018-04-13T06:00:07.524Z,991.42
2018-04-13T06:01:07.347Z,991.44
2018-04-13T06:02:07.231Z,991.51
2018-04-13T06:03:07.431Z,991.49
2018-04-13T06:04:07.274Z,991.50
2018-04-13T06:05:07.224Z,991.52
2018-04-13T06:06:07.218Z,991.55
2018-04-13T06:07:07.187Z,991.57
2018-04-13T06:08:07.180Z,991.59
2018-04-13T06:09:07.230Z,991.56
2018-04-13T06:10:07.236Z,991.58
2018-04-13T06:11:07.177Z,991.59
2018-04-13T06:12:07.197Z,991.64
2018-04-13T06:13:07.201Z,991.65
2018-04-13T06:14:07.159Z,991.64
2018-04-13T06:15:07.188Z,991.65
2018-04-13T06:16:07.154Z,991.60
2018-04-13T06:17:07.187Z,991.68
2018-04-13T06:18:07.159Z,991.66
2018-04-13T06:19:07.177Z,991.64
2018-04-13T06:20:07.181Z,991.72
2018-04-13T06:21:07.135Z,991.69
2018-04-13T06:22:07.143Z,991.66
2018-04-13T06:23:07.155Z,991.70
2018-04-13T06:24:07.142Z,991.72
2018-04-13T06:25:07.142Z,991.70
2018-04-13T06:26:07.122Z,991.69
2018-04-13T06:27:07.119Z,991.69
2018-04-13T06:28:07.124Z,991.69
2018-04-13T06:29:07.110Z,991.74
2018-04-13T06:30:07.113Z,991.67
2018-04-13T06:31:07.132Z,991.69
2018-04-13T06:32:07.107Z,991.74
2018-04-13T06:33:07.106Z,991.77
2018-04-13T06:34:07.127Z,991.81
2018-04-13T06:35:07.095Z,991.79
2018-04-13T06:36:07.081Z,991.82
2018-04-13T06:37:07.168Z,991.80
2018-04-13T06:38:07.138Z,991.84
2018-04-13T06:39:07.079Z,991.87
2018-04-13T06:40:07.075Z,991.89
2018-04-13T06:41:07.071Z,991.84
2018-04-13T06:42:07.068Z,991.79
2018-04-13T06:43:07.073Z,991.87
2018-04-13T06:44:07.081Z,991.84
2018-04-13T06:45:07.077Z,991.87
2018-04-13T06:46:07.056Z,991.93
2018-04-13T06:47:07.048Z,991.96
2018-04-13T06:48:07.063Z,991.94
2018-04-13T06:49:07.042Z,991.97
2018-04-13T06:50:07.038Z,991.96
2018-04-13T06:51:07.047Z,991.96
2018-04-13T06:52:07.049Z,991.95
2018-04-13T06:53:07.062Z,991.98
2018-04-13T06:54:07.076Z,992.01
2018-04-13T06:55:07.084Z,991.93
2018-04-13T06:56:07.057Z,992.00
2018-04-13T06:57:07.023Z,992.00
2018-04-13T06:58:07.016Z,992.00
2018-04-13T06:59:07.010Z,992.07
2018-04-13T07:00:07.020Z,992.06
2018-04-13T07:01:07.008Z,992.02
2018-04-13T07:02:07.006Z,992.04
2018-04-13T07:03:07.016Z,992.08
2018-04-13T07:04:07.000Z,992.04
2018-04-13T07:05:06.996Z,992.09
2018-04-13T07:06:07.023Z,992.12
2018-04-13T07:07:06.988Z,992.14
2018-04-13T07:08:07.003Z,992.10
2018-04-13T07:09:06.981Z,992.13
2018-04-13T07:10:06.977Z,992.19
2018-04-13T07:11:06.978Z,992.17
2018-04-13T07:12:06.972Z,992.19
2018-04-13T07:13:06.991Z,992.24
2018-04-13T07:14:06.982Z,992.20
2018-04-13T07:15:06.990Z,992.19
2018-04-13T07:16:06.961Z,992.15
2018-04-13T07:17:06.961Z,992.23
2018-04-13T07:18:06.961Z,992.18
2018-04-13T07:19:06.953Z,992.19
2018-04-13T07:20:06.957Z,992.19
2018-04-13T07:21:06.951Z,992.24
2018-04-13T07:22:06.939Z,992.24
2018-04-13T07:23:06.960Z,992.24
2018-04-13T07:24:06.940Z,992.32
2018-04-13T07:25:06.945Z,992.27
2018-04-13T07:26:06.947Z,992.31
2018-04-13T07:27:06.967Z,992.27
2018-04-13T07:28:06.920Z,992.27
2018-04-13T07:29:06.977Z,992.34
2018-04-13T07:30:06.921Z,992.37
2018-04-13T07:31:06.917Z,992.43
2018-04-13T07:32:06.916Z,992.39
2018-04-13T07:33:07.411Z,992.39
2018-04-13T07:34:07.088Z,992.42
2018-04-13T07:35:07.163Z,992.48
2018-04-13T07:36:07.450Z,992.47
2018-04-13T07:37:06.922Z,992.55
2018-04-13T07:38:06.950Z,992.57
2018-04-13T07:39:06.886Z,992.64
2018-04-13T07:40:06.887Z,992.65
2018-04-13T07:41:14.110Z,992.64
2018-04-13T07:43:00.316Z,992.76
2018-04-13T07:44:00.268Z,992.80
2018-04-13T07:45:00.343Z,992.72
2018-04-13T07:46:00.343Z,992.72
2018-04-13T07:47:00.265Z,992.73
2018-04-13T07:48:00.289Z,992.69
2018-04-13T07:49:00.272Z,992.66
2018-04-13T07:50:00.268Z,992.70
2018-04-13T07:51:00.266Z,992.72
2018-04-13T07:52:00.248Z,992.73
2018-04-13T07:53:00.246Z,992.71
2018-04-13T07:54:00.321Z,992.70
2018-04-13T07:55:00.254Z,992.78
2018-04-13T07:56:00.245Z,992.84
2018-04-13T07:57:00.226Z,992.81
2018-04-13T07:58:00.232Z,992.84
2018-04-13T07:59:00.554Z,992.93
2018-04-13T08:00:00.236Z,992.87
2018-04-13T08:01:00.239Z,992.88
2018-04-13T08:02:00.217Z,992.92
2018-04-13T08:03:00.242Z,992.89
2018-04-13T08:04:00.204Z,992.94
2018-04-13T08:05:00.212Z,993.03
2018-04-13T08:06:00.212Z,993.01
2018-04-13T08:07:00.202Z,993.05
2018-04-13T08:08:00.233Z,993.08
2018-04-13T08:09:00.201Z,993.09
2018-04-13T08:10:00.217Z,993.08
2018-04-13T08:11:08.875Z,993.16
2018-04-13T08:12:53.603Z,993.26
2018-04-13T08:14:02.514Z,993.24
2018-04-13T08:15:48.648Z,993.24
2018-04-13T08:18:10.198Z,993.29
2018-04-13T08:20:32.347Z,993.29
2018-04-13T08:21:32.192Z,993.39
2018-04-13T08:22:32.239Z,993.39
2018-04-13T08:23:32.225Z,993.41
2018-04-13T08:24:32.201Z,993.41
2018-04-13T08:25:32.198Z,993.42
2018-04-13T08:26:32.187Z,993.40
2018-04-13T08:27:32.169Z,993.42
2018-04-13T08:28:32.214Z,993.48
2018-04-13T08:29:32.181Z,993.49
2018-04-13T08:30:32.173Z,993.54
2018-04-13T08:31:32.156Z,993.57
2018-04-13T08:32:32.148Z,993.64
2018-04-13T08:33:32.148Z,993.63
2018-04-13T08:34:32.152Z,993.67
2018-04-13T08:35:32.227Z,993.66
2018-04-13T08:36:32.159Z,993.73
2018-04-13T08:37:32.162Z,993.77
2018-04-13T08:38:32.135Z,993.81
2018-04-13T08:39:32.144Z,993.84
2018-04-13T08:40:32.132Z,993.86
2018-04-13T08:41:32.159Z,993.86
2018-04-13T08:42:32.201Z,993.88
2018-04-13T08:43:32.127Z,993.98
2018-04-13T08:44:32.112Z,994.00
2018-04-13T08:45:32.116Z,994.06
2018-04-13T08:46:32.125Z,994.14
2018-04-13T08:47:32.110Z,994.11
2018-04-13T08:48:32.106Z,994.24
2018-04-13T08:49:32.158Z,994.22
2018-04-13T08:50:32.117Z,994.21
2018-04-13T08:51:32.136Z,994.24
2018-04-13T08:52:32.123Z,994.30
2018-04-13T08:53:32.092Z,994.26
2018-04-13T08:54:32.185Z,994.33
2018-04-13T08:55:32.120Z,994.39
2018-04-13T08:56:32.080Z,994.42
2018-04-13T08:57:32.082Z,994.47
2018-04-13T08:58:32.093Z,994.43
2018-04-13T08:59:32.077Z,994.49
2018-04-13T09:00:32.080Z,994.49
2018-04-13T09:01:32.117Z,994.54
2018-04-13T09:02:32.082Z,994.57
2018-04-13T09:03:32.071Z,994.62
2018-04-13T09:04:32.107Z,994.65
2018-04-13T09:05:32.055Z,994.62
2018-04-13T09:06:32.112Z,994.66
2018-04-13T09:07:32.082Z,994.72
2018-04-13T09:08:32.054Z,994.73
2018-04-13T09:09:32.058Z,994.79
2018-04-13T09:10:32.045Z,994.80
2018-04-13T09:11:32.087Z,994.83
2018-04-13T09:12:32.097Z,994.84
2018-04-13T09:13:32.034Z,994.84
2018-04-13T09:14:32.083Z,994.86
2018-04-13T09:15:32.071Z,994.88
2018-04-13T09:16:32.029Z,994.85
2018-04-13T09:17:32.024Z,994.88
2018-04-13T09:18:32.029Z,994.89
2018-04-13T09:19:32.020Z,994.98
2018-04-13T09:20:32.041Z,995.03
2018-04-13T09:21:32.049Z,995.03
2018-04-13T09:22:32.068Z,995.06
2018-04-13T09:23:32.068Z,995.08
2018-04-13T09:24:32.026Z,995.10
2018-04-13T09:25:32.003Z,995.17
2018-04-13T09:26:32.002Z,995.23
2018-04-13T09:27:32.003Z,995.14
2018-04-13T09:28:32.028Z,995.23
2018-04-13T09:29:31.997Z,995.26
2018-04-13T09:30:32.036Z,995.31
2018-04-13T09:31:32.005Z,995.37
2018-04-13T09:32:32.022Z,995.38
2018-04-13T09:33:32.057Z,995.44
2018-04-13T09:34:32.007Z,995.47
2018-04-13T09:35:32.051Z,995.48
2018-04-13T09:36:32.008Z,995.54
2018-04-13T09:37:32.155Z,995.56
2018-04-13T09:38:31.971Z,995.58
2018-04-13T09:39:31.977Z,995.63
2018-04-13T09:40:31.974Z,995.66
2018-04-13T09:41:31.966Z,995.68
2018-04-13T09:42:31.977Z,995.68
2018-04-13T09:43:31.995Z,995.71
2018-04-13T09:44:31.994Z,995.78
2018-04-13T09:45:32.015Z,995.73
2018-04-13T09:46:31.988Z,995.79
2018-04-13T09:47:31.992Z,995.79
2018-04-13T09:48:31.957Z,995.85
2018-04-13T09:49:31.979Z,995.84
2018-04-13T09:50:31.945Z,995.85
2018-04-13T09:51:31.952Z,995.89
2018-04-13T09:52:31.937Z,995.92
2018-04-13T09:53:31.933Z,995.91
2018-04-13T09:54:31.943Z,995.93
2018-04-13T09:55:31.938Z,996.00
2018-04-13T09:56:31.934Z,996.03
2018-04-13T09:57:31.961Z,996.03
2018-04-13T09:58:31.925Z,996.07
2018-04-13T09:59:31.932Z,996.08
2018-04-13T10:00:31.921Z,996.13
2018-04-13T10:01:31.921Z,996.23
2018-04-13T10:02:31.917Z,996.24
2018-04-13T10:03:31.915Z,996.20
2018-04-13T10:04:31.913Z,996.19
2018-04-13T10:05:31.916Z,996.18
2018-04-13T10:06:31.922Z,996.24
2018-04-13T10:07:40.601Z,996.30
2018-04-13T10:09:25.318Z,996.34
2018-04-13T10:10:25.301Z,996.32
2018-04-13T10:11:25.297Z,996.38
2018-04-13T10:12:25.313Z,996.38
2018-04-13T10:13:25.292Z,996.41
2018-04-13T10:14:25.318Z,996.41
2018-04-13T10:15:25.290Z,996.44
2018-04-13T10:16:25.325Z,996.45
2018-04-13T10:17:25.315Z,996.45
2018-04-13T10:18:25.284Z,996.46
2018-04-13T10:19:25.279Z,996.57
2018-04-13T10:20:25.278Z,996.55
2018-04-13T10:21:25.295Z,996.56
2018-04-13T10:22:25.300Z,996.61
2018-04-13T10:23:25.299Z,996.65
2018-04-13T10:24:25.289Z,996.70
2018-04-13T10:25:25.460Z,996.72
2018-04-13T10:26:25.287Z,996.71
2018-04-13T10:27:25.264Z,996.84
2018-04-13T10:28:25.259Z,996.83
2018-04-13T10:29:25.265Z,996.92
2018-04-13T10:30:25.257Z,996.88
2018-04-13T10:31:25.254Z,996.91
2018-04-13T10:32:25.254Z,996.91
2018-04-13T10:33:25.281Z,996.95
2018-04-13T10:34:25.253Z,997.08
2018-04-13T10:35:25.251Z,996.96
2018-04-13T10:36:25.246Z,997.01
2018-04-13T10:37:25.258Z,997.08
2018-04-13T10:38:25.265Z,997.06
2018-04-13T10:39:25.268Z,997.09
2018-04-13T10:40:33.980Z,997.06
2018-04-13T10:42:18.679Z,997.09
2018-04-13T10:43:18.648Z,997.11
2018-04-13T10:45:12.050Z,997.12
2018-04-13T10:46:12.034Z,997.15
2018-04-13T10:47:12.065Z,997.14
2018-04-13T10:48:12.055Z,997.17
2018-04-13T10:49:12.039Z,997.20
2018-04-13T10:50:12.040Z,997.28
2018-04-13T10:51:12.040Z,997.28
2018-04-13T10:52:12.120Z,997.32
2018-04-13T10:53:12.015Z,997.35
2018-04-13T10:54:12.037Z,997.38
2018-04-13T10:55:12.009Z,997.35
2018-04-13T10:56:12.008Z,997.31
2018-04-13T10:57:12.008Z,997.35
2018-04-13T10:58:12.005Z,997.36
2018-04-13T10:59:12.009Z,997.40
2018-04-13T11:00:12.031Z,997.42
2018-04-13T11:01:12.015Z,997.41
2018-04-13T11:02:12.029Z,997.45
2018-04-13T11:03:12.017Z,997.45
2018-04-13T11:04:12.005Z,997.45
2018-04-13T11:05:12.002Z,997.46
2018-04-13T11:06:12.092Z,997.48
2018-04-13T11:07:11.992Z,997.52
2018-04-13T11:08:11.986Z,997.52
2018-04-13T11:09:12.011Z,997.51
2018-04-13T11:10:11.984Z,997.52
2018-04-13T11:11:12.031Z,997.56
2018-04-13T11:12:12.056Z,997.55
2018-04-13T11:13:12.009Z,997.58
2018-04-13T11:14:12.060Z,997.61
2018-04-13T11:15:12.058Z,997.62
2018-04-13T11:16:11.996Z,997.65
2018-04-13T11:17:11.968Z,997.68
2018-04-13T11:18:11.965Z,997.71
2018-04-13T11:19:12.030Z,997.69
2018-04-13T11:20:12.021Z,997.73
2018-04-13T11:21:12.010Z,997.78
2018-04-13T11:22:11.984Z,997.79
2018-04-13T11:23:11.989Z,997.82
2018-04-13T11:24:11.951Z,997.86
2018-04-13T11:25:12.002Z,997.88
2018-04-13T11:26:11.969Z,997.90
2018-04-13T11:27:11.981Z,997.95
2018-04-13T11:28:11.988Z,997.90
2018-04-13T11:29:11.967Z,997.96
2018-04-13T11:30:11.979Z,997.98
2018-04-13T11:31:11.954Z,997.98
2018-04-13T11:32:11.929Z,997.99
2018-04-13T11:33:11.950Z,998.02
2018-04-13T11:34:11.965Z,998.08
2018-04-13T11:35:11.930Z,998.10
2018-04-13T11:36:11.949Z,998.07
2018-04-13T11:37:11.992Z,998.12
2018-04-13T11:38:11.922Z,998.14
2018-04-13T11:39:11.927Z,998.13
2018-04-13T11:40:11.925Z,998.19
2018-04-13T11:41:11.917Z,998.22
2018-04-13T11:42:11.920Z,998.26
2018-04-13T11:43:12.000Z,998.29
2018-04-13T11:44:11.910Z,998.27
2018-04-13T11:45:11.931Z,998.32
2018-04-13T11:46:11.903Z,998.31
2018-04-13T11:47:11.907Z,998.38
2018-04-13T11:48:11.912Z,998.35
2018-04-13T11:49:11.927Z,998.36
2018-04-13T11:50:11.903Z,998.43
2018-04-13T11:51:11.904Z,998.42
2018-04-13T11:52:11.890Z,998.44
2018-04-13T11:53:11.934Z,998.47
2018-04-13T11:54:11.924Z,998.48
2018-04-13T11:55:11.909Z,998.49
2018-04-13T11:56:11.999Z,998.51
2018-04-13T11:57:11.982Z,998.54
2018-04-13T11:58:11.882Z,998.54
2018-04-13T11:59:11.897Z,998.58
2018-04-13T12:00:11.889Z,998.59
2018-04-13T12:01:11.909Z,998.60
2018-04-13T12:02:11.877Z,998.61
2018-04-13T12:03:11.877Z,998.64
2018-04-13T12:04:11.865Z,998.67
2018-04-13T12:05:11.871Z,998.68
2018-04-13T12:06:11.862Z,998.71
2018-04-13T12:07:11.865Z,998.75
2018-04-13T12:08:11.869Z,998.76
2018-04-13T12:09:11.900Z,998.79
2018-04-13T12:10:11.901Z,998.81
2018-04-13T12:11:11.872Z,998.82
2018-04-13T12:12:11.868Z,998.82
2018-04-13T12:13:11.859Z,998.83
2018-04-13T12:14:11.897Z,998.88
2018-04-13T12:15:11.847Z,998.88
2018-04-13T12:16:11.861Z,998.92
2018-04-13T12:17:11.845Z,998.97
2018-04-13T12:18:11.853Z,998.95
2018-04-13T12:19:11.852Z,998.98
2018-04-13T12:20:11.875Z,998.94
2018-04-13T12:21:11.843Z,999.01
2018-04-13T12:22:11.858Z,999.04
2018-04-13T12:23:11.847Z,999.01
2018-04-13T12:24:11.833Z,999.09
2018-04-13T12:25:11.859Z,999.07
2018-04-13T12:26:11.854Z,999.09
2018-04-13T12:27:11.849Z,999.12
2018-04-13T12:28:11.838Z,999.14
2018-04-13T12:29:11.827Z,999.16
2018-04-13T12:30:11.823Z,999.16
2018-04-13T12:31:11.821Z,999.18
2018-04-13T12:32:11.825Z,999.22
2018-04-13T12:33:11.841Z,999.21
2018-04-13T12:34:11.815Z,999.25
2018-04-13T12:35:11.818Z,999.26
2018-04-13T12:36:11.985Z,999.30
2018-04-13T12:37:11.859Z,999.28
2018-04-13T12:38:11.833Z,999.32
2018-04-13T12:39:11.809Z,999.34
2018-04-13T12:40:11.826Z,999.38
2018-04-13T12:41:11.853Z,999.35
2018-04-13T12:42:11.813Z,999.35
2018-04-13T12:43:11.809Z,999.41
2018-04-13T12:44:11.801Z,999.41
2018-04-13T12:45:12.250Z,999.40
2018-04-13T12:46:11.808Z,999.41
2018-04-13T12:47:11.833Z,999.43
2018-04-13T12:48:11.804Z,999.48
2018-04-13T12:49:11.794Z,999.48
2018-04-13T12:50:11.805Z,999.47
2018-04-13T12:51:11.851Z,999.49
2018-04-13T12:52:11.784Z,999.55
2018-04-13T12:53:11.878Z,999.54
2018-04-13T12:54:11.785Z,999.52
2018-04-13T12:55:12.044Z,999.57
2018-04-13T12:56:11.779Z,999.55
2018-04-13T12:57:11.876Z,999.53
2018-04-13T12:58:11.924Z,999.54
2018-04-13T12:59:11.821Z,999.54
2018-04-13T13:00:21.556Z,999.60
2018-04-13T13:02:06.518Z,999.61
2018-04-13T13:03:06.261Z,999.63
2018-04-13T13:04:06.225Z,999.62
2018-04-13T13:05:06.301Z,999.64
2018-04-13T13:06:06.213Z,999.66
2018-04-13T13:07:06.214Z,999.65
2018-04-13T13:08:06.217Z,999.66
2018-04-13T13:09:06.198Z,999.70
2018-04-13T13:10:06.351Z,999.67
2018-04-13T13:11:06.227Z,999.72
2018-04-13T13:12:06.224Z,999.70
2018-04-13T13:13:06.227Z,999.72
2018-04-13T13:14:06.190Z,999.73
2018-04-13T13:15:06.239Z,999.72
2018-04-13T13:16:06.191Z,999.69
2018-04-13T13:17:06.183Z,999.74
2018-04-13T13:18:06.182Z,999.76
2018-04-13T13:19:06.192Z,999.77
2018-04-13T13:20:06.203Z,999.76
2018-04-13T13:21:06.180Z,999.79
2018-04-13T13:22:06.190Z,999.82
2018-04-13T13:23:06.244Z,999.82
2018-04-13T13:24:06.172Z,999.83
2018-04-13T13:25:06.206Z,999.84
2018-04-13T13:26:06.164Z,999.84
2018-04-13T13:27:06.174Z,999.86
2018-04-13T13:28:06.161Z,999.86
2018-04-13T13:29:06.160Z,999.88
2018-04-13T13:30:06.160Z,999.92
2018-04-13T13:31:06.199Z,999.92
2018-04-13T13:32:06.152Z,999.90
2018-04-13T13:33:06.155Z,999.95
2018-04-13T13:34:06.183Z,999.97
2018-04-13T13:35:06.162Z,999.97
2018-04-13T13:36:14.855Z,999.97
2018-04-13T13:37:59.605Z,1000.01
2018-04-13T13:38:59.559Z,999.97
2018-04-13T13:39:59.550Z,1000.01
2018-04-13T13:40:59.555Z,1000.02
2018-04-13T13:41:59.552Z,1000.02
2018-04-13T13:42:59.597Z,1000.05
2018-04-13T13:43:59.599Z,1000.05
2018-04-13T13:44:59.557Z,1000.06
2018-04-13T13:45:59.580Z,1000.08
2018-04-13T13:46:59.724Z,1000.05
2018-04-13T13:47:59.536Z,1000.10
2018-04-13T13:48:59.553Z,1000.07
2018-04-13T13:49:59.580Z,1000.04
2018-04-13T13:50:59.563Z,1000.08
2018-04-13T13:51:59.634Z,1000.08
2018-04-13T13:52:59.527Z,1000.06
2018-04-13T13:53:59.606Z,1000.09
2018-04-13T13:54:59.541Z,1000.07
2018-04-13T13:55:59.590Z,1000.10
2018-04-13T13:56:59.546Z,1000.15
2018-04-13T13:57:59.522Z,1000.10
2018-04-13T13:58:59.577Z,1000.11
2018-04-13T13:59:59.703Z,1000.11
2018-04-13T14:00:59.532Z,1000.12
2018-04-13T14:01:59.528Z,1000.13
2018-04-13T14:02:59.630Z,1000.14
2018-04-13T14:03:59.593Z,1000.15
2018-04-13T14:04:59.565Z,1000.14
2018-04-13T14:05:59.512Z,1000.16
2018-04-13T14:06:59.535Z,1000.11
2018-04-13T14:07:59.535Z,1000.11
2018-04-13T14:08:59.531Z,1000.12
2018-04-13T14:09:59.532Z,1000.11
2018-04-13T14:10:59.508Z,1000.10
2018-04-13T14:11:59.544Z,1000.14
2018-04-13T14:12:59.524Z,1000.12
2018-04-13T14:13:59.515Z,1000.17
2018-04-13T14:14:59.543Z,1000.13
2018-04-13T14:15:59.576Z,1000.17
2018-04-13T14:16:59.491Z,1000.13
2018-04-13T14:17:59.530Z,1000.18
2018-04-13T14:18:59.491Z,1000.19
2018-04-13T14:19:59.512Z,1000.16
2018-04-13T14:20:59.620Z,1000.13
2018-04-13T14:21:59.582Z,1000.18
2018-04-13T14:22:59.473Z,1000.17
2018-04-13T14:23:59.468Z,1000.20
2018-04-13T14:24:59.558Z,1000.18
2018-04-13T14:25:59.479Z,1000.18
2018-04-13T14:26:59.554Z,1000.18
2018-04-13T14:27:59.465Z,1000.14
2018-04-13T14:28:59.505Z,1000.17
2018-04-13T14:29:59.473Z,1000.10
2018-04-13T14:30:59.516Z,1000.13
2018-04-13T14:31:59.485Z,1000.13
2018-04-13T14:32:59.533Z,1000.13
2018-04-13T14:33:59.466Z,1000.14
2018-04-13T14:34:59.448Z,1000.12
2018-04-13T14:36:00.052Z,1000.14
2018-04-13T14:36:59.504Z,1000.13
2018-04-13T14:37:59.476Z,1000.11
2018-04-13T14:38:59.460Z,1000.16
2018-04-13T14:39:59.477Z,1000.11
2018-04-13T14:40:59.499Z,1000.21
2018-04-13T14:41:59.485Z,1000.14
2018-04-13T14:42:59.514Z,1000.12
2018-04-13T14:43:59.464Z,1000.13
2018-04-13T14:44:59.440Z,1000.14
2018-04-13T14:45:59.488Z,1000.13
2018-04-13T14:46:59.458Z,1000.18
2018-04-13T14:47:59.431Z,1000.19
2018-04-13T14:48:59.512Z,1000.13
2018-04-13T14:49:59.432Z,1000.17
2018-04-13T14:50:59.439Z,1000.15
2018-04-13T14:51:59.453Z,1000.15
2018-04-13T14:52:59.541Z,1000.16
2018-04-13T14:53:59.530Z,1000.13
2018-04-13T14:54:59.445Z,1000.18
2018-04-13T14:55:59.665Z,1000.18
2018-04-13T14:56:59.406Z,1000.15
2018-04-13T14:57:59.402Z,1000.19
2018-04-13T14:58:59.466Z,1000.14
2018-04-13T14:59:59.406Z,1000.16
2018-04-13T15:00:59.412Z,1000.15
2018-04-13T15:01:59.491Z,1000.13
2018-04-13T15:02:59.539Z,1000.10
2018-04-13T15:03:59.411Z,1000.08
2018-04-13T15:04:59.444Z,1000.12
2018-04-13T15:05:59.452Z,1000.10
2018-04-13T15:06:59.546Z,1000.06
2018-04-13T15:07:59.471Z,1000.10
2018-04-13T15:08:59.525Z,1000.02
2018-04-13T15:09:59.381Z,999.95
2018-04-13T15:10:59.438Z,999.93
2018-04-13T15:11:59.387Z,999.93
2018-04-13T15:12:59.429Z,999.91
2018-04-13T15:13:59.392Z,999.85
2018-04-13T15:14:59.377Z,999.83
2018-04-13T15:15:59.614Z,999.82
2018-04-13T15:16:59.436Z,999.78
2018-04-13T15:17:59.578Z,999.75
2018-04-13T15:19:07.628Z,999.78
2018-04-13T15:20:52.904Z,999.93
2018-04-13T15:21:52.820Z,999.95
2018-04-13T15:22:52.773Z,999.97
2018-04-13T15:23:52.778Z,999.93
2018-04-13T15:24:52.773Z,999.92
2018-04-13T15:25:52.786Z,999.95
2018-04-13T15:26:53.006Z,999.92
2018-04-13T15:27:52.779Z,999.98
2018-04-13T15:28:52.772Z,999.96
2018-04-13T15:29:52.763Z,999.98
2018-04-13T15:30:52.772Z,999.99
2018-04-13T15:31:52.776Z,999.98
2018-04-13T15:32:52.782Z,1000.00
2018-04-13T15:33:52.751Z,1000.05
2018-04-13T15:34:52.809Z,1000.11
2018-04-13T15:35:52.799Z,1000.10
2018-04-13T15:36:52.830Z,1000.10
2018-04-13T15:37:52.869Z,1000.10
2018-04-13T15:38:52.752Z,1000.10
2018-04-13T15:39:52.827Z,1000.16
2018-04-13T15:40:52.761Z,1000.14
2018-04-13T15:41:52.757Z,1000.20
2018-04-13T15:42:52.750Z,1000.16
2018-04-13T15:43:52.746Z,1000.21
2018-04-13T15:44:52.750Z,1000.19
2018-04-13T15:45:52.800Z,1000.21
2018-04-13T15:46:52.756Z,1000.19
2018-04-13T15:47:53.170Z,1000.20
2018-04-13T15:48:52.902Z,1000.18
2018-04-13T15:49:52.766Z,1000.15
2018-04-13T15:50:52.744Z,1000.16
2018-04-13T15:51:52.760Z,1000.14
2018-04-13T15:52:52.814Z,1000.13
2018-04-13T15:53:52.767Z,1000.14
2018-04-13T15:54:52.757Z,1000.11
2018-04-13T15:55:52.733Z,1000.10
2018-04-13T15:56:52.780Z,1000.10
2018-04-13T15:57:52.746Z,1000.13
2018-04-13T15:58:52.737Z,1000.09
2018-04-13T15:59:52.737Z,1000.07
2018-04-13T16:00:52.748Z,1000.04
2018-04-13T16:01:52.737Z,1000.08